createdAt,value
2018-04-27T00:01:14.967Z,2.10
2018-04-27T00:03:42.651Z,2.33
2018-04-27T00:06:10.267Z,1.67
2018-04-27T00:08:37.918Z,2.20
2018-04-27T00:11:05.538Z,1.60
2018-04-27T00:13:33.159Z,1.37
2018-04-27T00:16:00.831Z,1.50
2018-04-27T00:18:28.477Z,1.23
2018-04-27T00:20:56.120Z,1.63
2018-04-27T00:23:23.788Z,1.60
2018-04-27T00:25:51.426Z,1.33
2018-04-27T00:28:19.033Z,2.40
2018-04-27T00:30:46.652Z,1.90
2018-04-27T00:33:14.375Z,2.00
2018-04-27T00:35:41.973Z,1.50
2018-04-27T00:38:09.639Z,2.00
2018-04-27T00:40:37.239Z,1.20
2018-04-27T00:43:04.961Z,1.87
2018-04-27T00:45:32.675Z,1.80
2018-04-27T00:48:00.481Z,1.90
2018-04-27T00:50:28.172Z,1.40
2018-04-27T00:53:07.900Z,1.90
2018-04-27T00:55:35.575Z,1.53
2018-04-27T00:58:03.178Z,2.13
2018-04-27T01:00:30.764Z,1.53
2018-04-27T01:02:58.398Z,2.30
2018-04-27T01:05:25.981Z,2.50
2018-04-27T01:07:53.644Z,2.73
2018-04-27T01:10:21.230Z,3.70
2018-04-27T01:12:48.869Z,3.90
2018-04-27T01:15:16.478Z,2.33
2018-04-27T01:17:44.140Z,2.90
2018-04-27T01:20:11.776Z,3.43
2018-04-27T01:22:39.580Z,2.83
2018-04-27T01:25:07.265Z,2.37
2018-04-27T01:27:35.716Z,2.60
2018-04-27T01:30:03.392Z,2.17
2018-04-27T01:32:30.982Z,2.60
2018-04-27T01:34:58.612Z,2.00
2018-04-27T01:37:26.254Z,2.00
2018-04-27T01:39:53.901Z,2.80
2018-04-27T01:42:21.506Z,2.20
2018-04-27T01:44:49.170Z,2.37
2018-04-27T01:47:16.785Z,1.83
2018-04-27T01:49:44.436Z,2.37
2018-04-27T01:52:12.178Z,2.33
2018-04-27T01:54:39.898Z,1.90
2018-04-27T01:57:07.613Z,1.90
2018-04-27T01:59:35.367Z,1.93
2018-04-27T02:02:03.021Z,2.50
2018-04-27T02:04:30.889Z,2.00
2018-04-27T02:06:58.505Z,2.30
2018-04-27T02:09:26.124Z,2.47
2018-04-27T02:11:53.730Z,2.10
2018-04-27T02:14:21.460Z,2.60
2018-04-27T02:16:49.110Z,2.50
2018-04-27T02:19:16.780Z,2.60
2018-04-27T02:21:44.498Z,2.80
2018-04-27T02:24:12.085Z,1.80
2018-04-27T02:26:39.733Z,2.10
2018-04-27T02:29:07.332Z,2.40
2018-04-27T02:31:34.978Z,1.67
2018-04-27T02:34:02.661Z,2.30
2018-04-27T02:36:30.346Z,2.13
2018-04-27T02:38:58.044Z,1.73
2018-04-27T02:41:25.648Z,1.83
2018-04-27T02:43:53.285Z,2.30
2018-04-27T02:46:20.920Z,2.67
2018-04-27T02:48:48.512Z,1.43
2018-04-27T02:51:16.212Z,1.83
2018-04-27T02:53:43.915Z,1.90
2018-04-27T02:56:11.535Z,2.00
2018-04-27T02:58:39.153Z,2.10
2018-04-27T03:01:06.809Z,1.60
2018-04-27T03:03:34.426Z,2.30
2018-04-27T03:06:02.011Z,2.30
2018-04-27T03:08:29.656Z,2.87
2018-04-27T03:10:57.268Z,2.10
2018-04-27T03:13:24.892Z,2.67
2018-04-27T03:15:52.461Z,2.80
2018-04-27T03:18:20.110Z,2.37
2018-04-27T03:20:47.734Z,4.10
2018-04-27T03:23:15.388Z,3.70
2018-04-27T03:25:43.152Z,3.70
2018-04-27T03:28:10.806Z,5.00
2018-04-27T03:30:38.425Z,4.87
2018-04-27T03:33:06.038Z,3.90
2018-04-27T03:35:33.680Z,4.90
2018-04-27T03:38:01.308Z,4.37
2018-04-27T03:40:28.960Z,4.30
2018-04-27T03:42:56.639Z,4.97
2018-04-27T03:45:24.296Z,5.20
2018-04-27T03:47:51.940Z,3.83
2018-04-27T03:50:19.694Z,4.40
2018-04-27T03:52:47.273Z,5.37
2018-04-27T03:55:15.000Z,4.57
2018-04-27T03:57:42.693Z,3.53
2018-04-27T04:00:22.061Z,3.57
2018-04-27T04:03:01.483Z,4.17
2018-04-27T04:05:29.178Z,3.83
2018-04-27T04:07:56.845Z,4.07
2018-04-27T04:10:24.440Z,4.30
2018-04-27T04:12:52.036Z,3.80
2018-04-27T04:15:19.681Z,3.50
2018-04-27T04:17:47.322Z,4.23
2018-04-27T04:20:15.032Z,3.50
2018-04-27T04:22:42.681Z,3.10
2018-04-27T04:25:10.303Z,3.10
2018-04-27T04:27:37.964Z,3.37
2018-04-27T04:30:05.632Z,2.80
2018-04-27T04:32:33.238Z,3.90
2018-04-27T04:35:00.930Z,3.43
2018-04-27T04:37:28.555Z,3.20
2018-04-27T04:39:56.385Z,4.37
2018-04-27T04:42:24.007Z,3.30
2018-04-27T04:44:51.602Z,3.20
2018-04-27T04:47:19.473Z,2.60
2018-04-27T04:49:47.178Z,2.43
2018-04-27T04:52:14.855Z,2.67
2018-04-27T04:54:42.564Z,2.70
2018-04-27T04:57:10.178Z,2.37
2018-04-27T04:59:37.790Z,1.80
2018-04-27T05:02:05.434Z,3.27
2018-04-27T05:04:33.070Z,4.07
2018-04-27T05:07:00.735Z,3.90
2018-04-27T05:09:28.339Z,4.23
2018-04-27T05:11:55.969Z,4.73
2018-04-27T05:14:23.610Z,4.90
2018-04-27T05:16:51.231Z,5.90
2018-04-27T05:19:18.944Z,4.60
2018-04-27T05:21:46.632Z,4.77
2018-04-27T05:24:14.269Z,4.30
2018-04-27T05:26:41.884Z,5.17
2018-04-27T05:29:09.542Z,5.07
2018-04-27T05:31:37.194Z,6.60
2018-04-27T05:34:04.841Z,4.00
2018-04-27T05:36:32.535Z,4.97
2018-04-27T05:39:00.138Z,4.83
2018-04-27T05:41:27.838Z,3.90
2018-04-27T05:43:55.605Z,4.20
2018-04-27T05:46:23.349Z,4.17
2018-04-27T05:48:51.021Z,6.97
2018-04-27T05:51:18.716Z,5.33
2018-04-27T05:53:46.343Z,5.43
2018-04-27T05:56:14.062Z,5.17
2018-04-27T05:58:41.756Z,5.27
2018-04-27T06:01:09.377Z,5.10
2018-04-27T06:03:49.184Z,6.00
2018-04-27T06:06:17.048Z,5.40
2018-04-27T06:08:45.486Z,5.67
2018-04-27T06:11:13.912Z,7.17
2018-04-27T06:13:41.572Z,4.73
2018-04-27T06:16:09.272Z,5.47
2018-04-27T06:18:36.897Z,4.50
2018-04-27T06:21:04.974Z,5.47
2018-04-27T06:23:32.837Z,4.70
2018-04-27T06:26:00.584Z,4.50
2018-04-27T06:28:28.365Z,4.53
2018-04-27T06:30:56.136Z,4.77
2018-04-27T06:33:24.000Z,4.93
2018-04-27T06:35:51.679Z,6.00
2018-04-27T06:38:19.336Z,4.40
2018-04-27T06:40:46.967Z,3.87
2018-04-27T06:43:14.716Z,2.93
2018-04-27T06:45:42.515Z,4.10
2018-04-27T06:48:10.937Z,4.00
2018-04-27T06:50:38.829Z,3.90
2018-04-27T06:53:06.698Z,5.53
2018-04-27T06:55:34.514Z,1.97
2018-04-27T06:58:02.269Z,3.50
2018-04-27T07:00:30.423Z,3.40
2018-04-27T07:02:58.605Z,3.47
2018-04-27T07:05:26.485Z,3.30
2018-04-27T07:07:54.261Z,2.50
2018-04-27T07:10:22.367Z,2.77
2018-04-27T07:12:50.075Z,2.60
2018-04-27T07:15:17.826Z,2.13
2018-04-27T07:17:45.480Z,2.13
2018-04-27T07:20:13.168Z,2.90
2018-04-27T07:22:40.812Z,3.13
2018-04-27T07:25:08.657Z,3.40
2018-04-27T07:27:36.295Z,3.33
2018-04-27T07:30:04.220Z,4.57
2018-04-27T07:32:31.885Z,3.63
2018-04-27T07:34:59.498Z,4.73
2018-04-27T07:37:27.303Z,4.67
2018-04-27T07:39:54.915Z,4.07
2018-04-27T07:42:22.596Z,3.80
2018-04-27T07:44:50.281Z,3.77
2018-04-27T07:47:17.996Z,2.47
2018-04-27T07:49:45.649Z,3.50
2018-04-27T07:52:13.332Z,2.90
2018-04-27T07:54:41.000Z,3.20
2018-04-27T07:57:08.749Z,3.90
2018-04-27T07:59:36.486Z,2.37
2018-04-27T08:02:04.170Z,2.57
2018-04-27T08:04:31.898Z,2.43
2018-04-27T08:06:59.654Z,2.00
2018-04-27T08:09:27.330Z,2.43
2018-04-27T08:11:55.010Z,1.97
2018-04-27T08:14:22.738Z,1.60
2018-04-27T08:16:50.444Z,2.00
2018-04-27T08:19:18.136Z,1.93
2018-04-27T08:21:46.596Z,1.47
2018-04-27T08:24:14.348Z,2.50
2018-04-27T08:26:42.008Z,2.20
2018-04-27T08:29:09.764Z,1.90
2018-04-27T08:31:37.375Z,1.40
2018-04-27T08:34:05.053Z,1.80
2018-04-27T08:36:32.708Z,1.17
2018-04-27T08:39:00.529Z,1.80
2018-04-27T08:41:29.304Z,2.00
2018-04-27T08:43:57.208Z,1.83
2018-04-27T08:46:25.110Z,1.60
2018-04-27T08:48:52.790Z,2.00
2018-04-27T08:51:20.587Z,1.17
2018-04-27T08:53:48.272Z,1.90
2018-04-27T08:56:16.508Z,1.50
2018-04-27T08:58:44.204Z,1.30
2018-04-27T09:01:12.025Z,1.77
2018-04-27T09:03:39.990Z,1.43
2018-04-27T09:06:07.610Z,1.40
2018-04-27T09:08:35.402Z,1.07
2018-04-27T09:11:03.050Z,1.57
2018-04-27T09:13:32.061Z,1.20
2018-04-27T09:15:59.855Z,1.70
2018-04-27T09:18:27.637Z,1.60
2018-04-27T09:20:55.680Z,0.87
2018-04-27T09:23:25.405Z,1.07
2018-04-27T09:25:53.871Z,0.77
2018-04-27T09:28:21.740Z,0.90
2018-04-27T09:30:49.734Z,1.60
2018-04-27T09:33:17.407Z,1.07
2018-04-27T09:35:45.042Z,1.23
2018-04-27T09:38:12.793Z,1.23
2018-04-27T09:40:40.584Z,1.40
2018-04-27T09:43:08.315Z,1.87
2018-04-27T09:45:35.960Z,1.10
2018-04-27T09:48:03.735Z,1.10
2018-04-27T09:50:31.630Z,1.00
2018-04-27T09:52:59.395Z,1.30
2018-04-27T09:55:27.026Z,1.00
2018-04-27T09:57:54.635Z,1.13
2018-04-27T10:00:22.372Z,1.40
2018-04-27T10:02:50.040Z,1.47
2018-04-27T10:05:17.726Z,1.17
2018-04-27T10:07:45.368Z,0.80
2018-04-27T10:10:13.026Z,1.77
2018-04-27T10:12:41.570Z,1.40
2018-04-27T10:15:09.267Z,1.10
2018-04-27T10:17:36.924Z,1.10
2018-04-27T10:20:04.607Z,1.30
2018-04-27T10:22:32.345Z,1.10
2018-04-27T10:25:00.027Z,1.30
2018-04-27T10:27:27.740Z,1.40
2018-04-27T10:29:56.635Z,1.40
2018-04-27T10:32:24.325Z,1.47
2018-04-27T10:34:51.966Z,1.50
2018-04-27T10:37:19.675Z,1.37
2018-04-27T10:39:47.307Z,1.30
2018-04-27T10:42:15.057Z,1.20
2018-04-27T10:44:42.758Z,1.87
2018-04-27T10:47:10.500Z,1.30
2018-04-27T10:49:38.206Z,1.30
2018-04-27T10:52:05.965Z,1.20
2018-04-27T10:54:33.688Z,1.50
2018-04-27T10:57:02.328Z,1.13
2018-04-27T10:59:30.411Z,1.30
2018-04-27T11:01:58.070Z,1.40
2018-04-27T11:04:25.779Z,1.83
2018-04-27T11:06:53.495Z,1.53
2018-04-27T11:09:21.428Z,1.47
2018-04-27T11:11:49.403Z,1.20
2018-04-27T11:14:17.121Z,1.30
2018-04-27T11:16:45.587Z,2.20
2018-04-27T11:19:12.794Z,1.20
2018-04-27T11:21:40.860Z,1.63
2018-04-27T11:24:08.533Z,1.40
2018-04-27T11:26:37.020Z,1.40
2018-04-27T11:29:04.621Z,1.83
2018-04-27T11:31:32.343Z,1.60
2018-04-27T11:34:00.059Z,1.43
2018-04-27T11:36:27.865Z,1.53
2018-04-27T11:38:55.504Z,2.13
2018-04-27T11:41:23.169Z,2.20
2018-04-27T11:43:50.850Z,1.77
2018-04-27T11:46:18.515Z,1.63
2018-04-27T11:48:46.545Z,1.83
2018-04-27T11:51:14.242Z,1.47
2018-04-27T11:53:42.206Z,1.77
2018-04-27T11:56:10.643Z,1.17
2018-04-27T11:58:38.968Z,1.70
2018-04-27T12:01:06.974Z,2.10
2018-04-27T12:03:34.821Z,1.63
2018-04-27T12:06:02.670Z,1.67
2018-04-27T12:08:30.558Z,1.63
2018-04-27T12:10:58.211Z,1.90
2018-04-27T12:13:26.079Z,1.83
2018-04-27T12:15:53.804Z,2.00
2018-04-27T12:18:21.749Z,1.60
2018-04-27T12:20:49.456Z,1.93
2018-04-27T12:23:17.096Z,1.40
2018-04-27T12:25:45.213Z,2.30
2018-04-27T12:28:12.922Z,2.27
2018-04-27T12:30:42.013Z,1.90
2018-04-27T12:33:10.005Z,2.53
2018-04-27T12:35:38.422Z,2.37
2018-04-27T12:38:06.616Z,1.97
2018-04-27T12:40:34.462Z,2.03
2018-04-27T12:43:02.598Z,2.40
2018-04-27T12:45:30.297Z,1.70
2018-04-27T12:47:58.071Z,1.60
2018-04-27T12:50:25.727Z,1.93
2018-04-27T12:52:54.322Z,1.63
2018-04-27T12:55:22.409Z,2.17
2018-04-27T12:57:50.492Z,1.70
2018-04-27T13:00:18.128Z,2.03
2018-04-27T13:02:45.983Z,1.97
2018-04-27T13:05:14.136Z,2.27
2018-04-27T13:07:42.098Z,2.47
2018-04-27T13:10:10.131Z,2.37
2018-04-27T13:12:37.861Z,1.40
2018-04-27T13:15:05.635Z,1.90
2018-04-27T13:17:33.393Z,1.93
2018-04-27T13:20:01.877Z,2.70
2018-04-27T13:22:29.674Z,1.70
2018-04-27T13:24:57.495Z,2.00
2018-04-27T13:27:25.356Z,2.47
2018-04-27T13:29:53.047Z,1.90
2018-04-27T13:32:20.796Z,2.30
2018-04-27T13:34:49.217Z,1.80
2018-04-27T13:37:17.252Z,1.77
2018-04-27T13:39:45.301Z,2.20
2018-04-27T13:42:13.826Z,1.50
2018-04-27T13:44:41.637Z,2.20
2018-04-27T13:47:10.456Z,1.33
2018-04-27T13:49:38.136Z,1.77
2018-04-27T13:52:05.977Z,1.80
2018-04-27T13:54:34.364Z,1.10
2018-04-27T13:57:02.132Z,1.90
2018-04-27T13:59:29.803Z,2.43
2018-04-27T14:01:57.661Z,2.00
2018-04-27T14:04:25.427Z,2.03
2018-04-27T14:06:53.189Z,2.37
2018-04-27T14:09:21.160Z,1.80
2018-04-27T14:11:48.848Z,1.87
2018-04-27T14:14:16.776Z,4.13
2018-04-27T14:16:44.659Z,1.70
2018-04-27T14:19:13.629Z,1.90
2018-04-27T14:21:41.332Z,2.40
2018-04-27T14:24:09.094Z,2.77
2018-04-27T14:26:36.801Z,1.70
2018-04-27T14:29:04.816Z,1.90
2018-04-27T14:31:32.671Z,4.73
2018-04-27T14:34:00.537Z,2.60
2018-04-27T14:36:28.215Z,1.93
2018-04-27T14:38:55.802Z,1.83
2018-04-27T14:41:23.436Z,1.70
2018-04-27T14:43:51.134Z,1.83
2018-04-27T14:46:18.794Z,1.53
2018-04-27T14:48:46.628Z,2.30
2018-04-27T14:51:14.360Z,1.90
2018-04-27T14:53:41.976Z,2.00
2018-04-27T14:56:09.615Z,2.23
2018-04-27T14:58:37.371Z,2.20
2018-04-27T15:01:05.348Z,2.17
2018-04-27T15:03:33.058Z,2.60
2018-04-27T15:06:00.807Z,1.90
2018-04-27T15:08:29.074Z,2.10
2018-04-27T15:10:56.803Z,2.20
2018-04-27T15:13:24.747Z,2.27
2018-04-27T15:15:52.986Z,2.23
2018-04-27T15:18:20.702Z,2.13
2018-04-27T15:20:48.371Z,1.90
2018-04-27T15:23:16.209Z,2.27
2018-04-27T15:25:44.011Z,2.10
2018-04-27T15:28:11.641Z,1.90
2018-04-27T15:30:39.318Z,2.40
2018-04-27T15:33:06.989Z,2.10
2018-04-27T15:35:34.629Z,2.20
2018-04-27T15:38:03.147Z,2.57
2018-04-27T15:40:31.655Z,2.40
2018-04-27T15:42:59.361Z,1.93
2018-04-27T15:45:27.751Z,3.10
2018-04-27T15:47:55.415Z,2.93
2018-04-27T15:50:23.099Z,2.30
2018-04-27T15:52:50.741Z,2.50
2018-04-27T15:55:18.436Z,3.50
2018-04-27T15:57:46.291Z,2.07
2018-04-27T16:00:13.931Z,2.67
2018-04-27T16:02:42.636Z,1.53
2018-04-27T16:05:10.323Z,2.37
2018-04-27T16:07:38.162Z,1.80
2018-04-27T16:10:05.917Z,2.50
2018-04-27T16:12:34.126Z,2.37
2018-04-27T16:15:02.154Z,2.80
2018-04-27T16:17:29.943Z,2.50
2018-04-27T16:19:58.189Z,2.60
2018-04-27T16:22:25.862Z,2.20
2018-04-27T16:24:53.646Z,2.80
2018-04-27T16:27:21.269Z,2.30
2018-04-27T16:29:49.170Z,2.10
2018-04-27T16:32:16.865Z,2.50
2018-04-27T16:34:44.527Z,3.10
2018-04-27T16:37:12.266Z,2.20
2018-04-27T16:39:40.132Z,2.57
2018-04-27T16:42:08.116Z,2.23
2018-04-27T16:44:35.869Z,2.53
2018-04-27T16:47:03.738Z,2.50
2018-04-27T16:49:31.823Z,2.87
2018-04-27T16:51:59.448Z,3.00
2018-04-27T16:54:27.991Z,2.80
2018-04-27T16:56:56.605Z,2.70
2018-04-27T16:59:24.900Z,2.40
2018-04-27T17:01:52.782Z,1.70
2018-04-27T17:04:20.806Z,2.37
2018-04-27T17:06:48.618Z,3.30
2018-04-27T17:09:16.472Z,2.40
2018-04-27T17:11:44.908Z,2.20
2018-04-27T17:14:12.849Z,2.80
2018-04-27T17:16:40.702Z,1.80
2018-04-27T17:19:08.572Z,2.60
2018-04-27T17:21:36.784Z,2.30
2018-04-27T17:24:04.507Z,3.03
2018-04-27T17:26:32.370Z,2.40
2018-04-27T17:29:00.191Z,2.90
2018-04-27T17:31:28.098Z,2.93
2018-04-27T17:33:55.751Z,2.80
2018-04-27T17:36:23.534Z,2.70
2018-04-27T17:38:51.219Z,2.53
2018-04-27T17:41:19.217Z,2.50
2018-04-27T17:43:46.891Z,2.50
2018-04-27T17:46:14.591Z,2.50
2018-04-27T17:48:42.565Z,2.80
2018-04-27T17:51:11.233Z,2.83
2018-04-27T17:53:39.004Z,2.60
2018-04-27T17:56:07.094Z,2.67
2018-04-27T17:58:34.957Z,2.37
2018-04-27T18:01:03.430Z,3.00
2018-04-27T18:03:31.261Z,3.60
2018-04-27T18:05:58.949Z,3.40
2018-04-27T18:08:26.594Z,3.60
2018-04-27T18:10:55.892Z,4.03
2018-04-27T18:13:24.801Z,3.03
2018-04-27T18:15:52.699Z,3.07
2018-04-27T18:18:20.677Z,2.63
2018-04-27T18:20:48.525Z,3.10
2018-04-27T18:23:16.291Z,2.60
2018-04-27T18:25:44.462Z,3.50
2018-04-27T18:28:12.169Z,2.50
2018-04-27T18:30:39.995Z,3.67
2018-04-27T18:33:07.752Z,2.80
2018-04-27T18:35:36.624Z,4.07
2018-04-27T18:38:05.915Z,2.90
2018-04-27T18:40:33.814Z,2.63
2018-04-27T18:43:01.588Z,2.80
2018-04-27T18:45:29.354Z,3.10
2018-04-27T18:47:57.316Z,2.87
2018-04-27T18:50:26.955Z,2.70
2018-04-27T18:52:55.729Z,3.87
2018-04-27T18:55:24.316Z,3.00
2018-04-27T18:57:52.002Z,3.00
2018-04-27T19:00:19.871Z,2.77
2018-04-27T19:02:48.002Z,3.50
2018-04-27T19:05:16.660Z,2.97
2018-04-27T19:07:44.602Z,3.37
2018-04-27T19:10:13.464Z,3.67
2018-04-27T19:12:41.334Z,2.97
2018-04-27T19:15:09.040Z,3.43
2018-04-27T19:17:37.656Z,2.37
2018-04-27T19:20:05.503Z,2.53
2018-04-27T19:22:34.287Z,3.23
2018-04-27T19:25:02.764Z,3.13
2018-04-27T19:27:30.501Z,2.83
2018-04-27T19:29:58.369Z,3.30
2018-04-27T19:32:26.216Z,3.70
2018-04-27T19:34:53.948Z,3.30
2018-04-27T19:37:21.710Z,2.73
2018-04-27T19:39:49.445Z,2.83
2018-04-27T19:42:17.197Z,3.53
2018-04-27T19:44:44.872Z,3.30
2018-04-27T19:47:12.607Z,3.13
2018-04-27T19:49:40.314Z,3.50
2018-04-27T19:52:08.029Z,3.07
2018-04-27T19:54:35.723Z,3.20
2018-04-27T19:57:03.536Z,3.87
2018-04-27T19:59:31.326Z,3.83
2018-04-27T20:01:59.025Z,3.50
2018-04-27T20:04:26.785Z,3.27
2018-04-27T20:06:55.336Z,3.40
2018-04-27T20:09:23.152Z,3.37
2018-04-27T20:11:51.010Z,3.10
2018-04-27T20:14:36.795Z,3.57
2018-04-27T20:17:05.246Z,3.07
2018-04-27T20:19:38.403Z,3.30
2018-04-27T20:22:10.927Z,3.03
2018-04-27T20:24:40.280Z,3.97
2018-04-27T20:27:09.375Z,3.40
2018-04-27T20:29:37.537Z,3.27
2018-04-27T20:32:05.400Z,4.27
2018-04-27T20:34:33.396Z,3.00
2018-04-27T20:37:01.180Z,3.17
2018-04-27T20:39:29.119Z,2.93
2018-04-27T20:41:57.225Z,4.30
2018-04-27T20:44:25.397Z,2.60
2018-04-27T20:46:53.233Z,3.73
2018-04-27T20:49:21.101Z,3.27
2018-04-27T20:51:51.538Z,3.13
2018-04-27T20:54:19.704Z,3.57
2018-04-27T20:56:47.841Z,3.40
2018-04-27T20:59:15.734Z,2.90
2018-04-27T21:01:43.414Z,3.30
2018-04-27T21:04:12.096Z,3.50
2018-04-27T21:06:40.053Z,2.90
2018-04-27T21:09:10.527Z,3.90
2018-04-27T21:11:39.093Z,3.90
2018-04-27T21:14:07.137Z,2.97
2018-04-27T21:16:35.017Z,3.80
2018-04-27T21:19:03.351Z,3.87
2018-04-27T21:21:31.070Z,3.33
2018-04-27T21:23:58.818Z,2.90
2018-04-27T21:26:27.514Z,3.57
2018-04-27T21:28:56.108Z,3.33
2018-04-27T21:31:23.825Z,3.60
2018-04-27T21:33:54.650Z,3.37
2018-04-27T21:36:25.473Z,3.20
2018-04-27T21:42:06.924Z,3.10
2018-04-27T21:44:37.460Z,3.97
2018-04-27T21:50:06.823Z,4.10
2018-04-27T21:52:35.364Z,3.90
2018-04-27T21:55:03.952Z,3.63
2018-04-27T21:57:35.677Z,3.43
2018-04-27T22:00:25.942Z,3.20
2018-04-27T22:02:57.351Z,5.80
2018-04-27T22:08:27.778Z,3.33
2018-04-27T22:10:55.630Z,3.40
2018-04-27T22:13:24.774Z,3.97
2018-04-27T22:15:52.481Z,4.73
2018-04-27T22:18:20.369Z,3.80
2018-04-27T22:20:49.260Z,4.00
2018-04-27T22:23:21.759Z,4.03
2018-04-27T22:25:49.627Z,5.13
2018-04-27T22:28:34.524Z,5.00
2018-04-27T22:31:02.327Z,3.70
2018-04-27T22:33:34.839Z,3.70
2018-04-27T22:36:04.749Z,5.17
2018-04-27T22:38:37.180Z,4.00
2018-04-27T22:41:12.460Z,3.87
2018-04-27T22:43:40.154Z,4.30
2018-04-27T22:46:09.844Z,3.67
2018-04-27T22:48:41.751Z,4.33
2018-04-27T22:51:22.255Z,4.30
2018-04-27T22:54:17.600Z,3.33
2018-04-27T22:56:45.526Z,5.30
2018-04-27T22:59:13.413Z,3.60
2018-04-27T23:01:41.261Z,3.80
2018-04-27T23:04:09.037Z,3.50
2018-04-27T23:06:36.886Z,4.13
2018-04-27T23:09:04.709Z,3.80
2018-04-27T23:11:33.165Z,4.23
2018-04-27T23:14:03.778Z,3.10
2018-04-27T23:16:31.551Z,5.57
2018-04-27T23:18:59.313Z,4.20
2018-04-27T23:24:25.057Z,4.50
2018-04-27T23:26:53.532Z,4.00
2018-04-27T23:29:21.250Z,3.63
2018-04-27T23:31:48.918Z,4.00
2018-04-27T23:34:16.706Z,4.57
2018-04-27T23:36:44.420Z,4.47
2018-04-27T23:39:12.243Z,4.33
2018-04-27T23:41:40.533Z,4.13
2018-04-27T23:44:08.251Z,4.50
2018-04-27T23:46:35.923Z,4.47
2018-04-27T23:49:03.650Z,4.13
2018-04-27T23:51:31.385Z,3.97
2018-04-27T23:54:02.843Z,4.70
2018-04-27T23:56:31.384Z,5.20
2018-04-27T23:58:59.084Z,3.70
